Time;durP1;ratioP1;P1;durP2;ratioP2;P2;SDS_P1;SDS_P2;PMS_P1;PMS_P2;Temp;Humidity;BMP_temperature;BMP_pressure;BME280_temperature;BME280_humidity;BME280_pressure;Samples;Min_cycle;Max_cycle;Signal;HPM_P1;HPM_P2
2022/11/28 00:01:00;;;;;;;;;;;;;;;22.10;53.01;100608.91;7255872;19;153185;-57
2022/11/28 00:03:27;;;;;;;;;;;;;;;22.10;52.79;100611.72;7256831;19;154804;-56
2022/11/28 00:05:54;;;;;;;;;;;;;;;22.11;52.64;100604.94;7257438;19;153475;-56
2022/11/28 00:08:21;;;;;;;;;;;;;;;22.11;52.57;100605.78;7258585;19;154304;-56
2022/11/28 00:10:48;;;;;;;;;;;;;;;22.13;52.56;100597.81;7260133;19;154528;-56
2022/11/28 00:13:15;;;;;;;;;;;;;;;22.14;52.53;100602.28;7256812;19;154115;-56
2022/11/28 00:15:42;;;;;;;;;;;;;;;22.15;52.36;100592.69;7256282;19;155719;-56
2022/11/28 00:18:10;;;;;;;;;;;;;;;22.15;52.44;100591.88;7256797;19;153558;-56
2022/11/28 00:20:36;;;;;;;;;;;;;;;22.14;52.07;100588.22;7253997;19;154775;-56
2022/11/28 00:23:03;;;;;;;;;;;;;;;22.15;52.03;100589.88;7257166;19;154126;-56
2022/11/28 00:25:30;;;;;;;;;;;;;;;22.15;52.51;100592.69;7257770;19;153615;-57
2022/11/28 00:27:57;;;;;;;;;;;;;;;22.14;52.09;100593.03;7256496;19;154408;-56
2022/11/28 00:30:24;;;;;;;;;;;;;;;22.13;52.64;100605.44;7251054;19;153224;-57
2022/11/28 00:32:50;;;;;;;;;;;;;;;22.10;52.77;100608.91;7265840;19;153584;-56
2022/11/28 00:35:17;;;;;;;;;;;;;;;22.08;52.40;100597.97;7255665;19;154987;-57
2022/11/28 00:37:44;;;;;;;;;;;;;;;22.07;52.16;100601.13;7253877;19;153427;-57
2022/11/28 00:40:11;;;;;;;;;;;;;;;22.02;52.67;100590.03;7255630;19;153512;-56
2022/11/28 00:42:38;;;;;;;;;;;;;;;21.98;52.99;100589.03;7255409;19;153381;-57
2022/11/28 00:45:05;;;;;;;;;;;;;;;21.93;53.24;100590.00;7250989;19;153953;-57
2022/11/28 00:47:31;;;;;;;;;;;;;;;21.87;53.60;100582.00;7255893;19;153653;-57
2022/11/28 00:49:58;;;;;;;;;;;;;;;21.86;53.46;100580.34;7254750;19;153289;-57
2022/11/28 00:52:25;;;;;;;;;;;;;;;21.88;53.67;100578.03;7252933;19;154242;-57
2022/11/28 00:54:52;;;;;;;;;;;;;;;21.86;53.84;100569.09;7261957;19;155877;-57
2022/11/28 00:57:19;;;;;;;;;;;;;;;21.78;53.94;100564.28;7256516;19;153597;-57
2022/11/28 00:59:46;;;;;;;;;;;;;;;21.72;53.89;100567.22;7247662;19;154017;-57
2022/11/28 01:02:12;;;;;;;;;;;;;;;21.68;53.96;100565.38;7254037;19;154546;-56
2022/11/28 01:04:39;;;;;;;;;;;;;;;21.66;54.36;100567.72;7256316;19;152630;-57
2022/11/28 01:07:07;;;;;;;;;;;;;;;21.61;54.17;100560.25;7255382;19;153631;-58
2022/11/28 01:09:34;;;;;;;;;;;;;;;21.58;54.57;100560.88;7252622;19;153829;-57
2022/11/28 01:12:00;;;;;;;;;;;;;;;21.58;54.48;100562.88;7256827;19;154879;-57
2022/11/28 01:14:29;;;;;;;;;;;;;;;21.55;54.15;100555.09;7261840;19;154511;-57
2022/11/28 01:16:55;;;;;;;;;;;;;;;21.55;54.03;100558.72;7253920;19;154548;-57
2022/11/28 01:19:22;;;;;;;;;;;;;;;21.51;54.38;100549.28;7253800;19;154902;-57
2022/11/28 01:21:49;;;;;;;;;;;;;;;21.51;54.17;100552.09;7254335;19;155985;-57
2022/11/28 01:24:16;;;;;;;;;;;;;;;21.49;54.60;100560.03;7254984;19;151938;-56
2022/11/28 01:26:43;;;;;;;;;;;;;;;21.48;54.31;100557.56;7252795;19;155511;-56
2022/11/28 01:29:10;;;;;;;;;;;;;;;21.46;54.09;100554.22;7251739;19;153361;-57
2022/11/28 01:31:37;;;;;;;;;;;;;;;21.43;54.34;100552.91;7255129;19;153367;-57
2022/11/28 01:34:04;;;;;;;;;;;;;;;21.43;54.47;100540.84;7252939;19;154407;-57
2022/11/28 01:36:30;;;;;;;;;;;;;;;21.43;54.21;100540.84;7261140;19;153707;-57
2022/11/28 01:38:57;;;;;;;;;;;;;;;21.41;54.03;100538.34;7254003;19;153570;-56
2022/11/28 01:41:25;;;;;;;;;;;;;;;21.40;53.93;100544.28;7250096;19;154555;-57
2022/11/28 01:43:55;;;;;;;;;;;;;;;21.37;54.08;100550.56;7250480;19;153441;-57
2022/11/28 01:46:22;;;;;;;;;;;;;;;21.35;54.11;100547.25;7253528;19;153939;-56
2022/11/28 01:48:49;;;;;;;;;;;;;;;21.33;54.21;100550.38;7252086;19;153560;-56
2022/11/28 01:51:16;;;;;;;;;;;;;;;21.30;53.94;100546.22;7257945;19;154079;-56
2022/11/28 01:53:44;;;;;;;;;;;;;;;21.28;54.32;100542.91;7261630;19;153671;-56
2022/11/28 01:56:14;;;;;;;;;;;;;;;21.28;54.17;100542.09;7256312;19;154657;-56
2022/11/28 01:58:43;;;;;;;;;;;;;;;21.25;54.15;100534.31;7263935;19;153940;-56
2022/11/28 02:01:10;;;;;;;;;;;;;;;21.21;53.85;100520.06;7259814;19;154083;-57
2022/11/28 02:03:42;;;;;;;;;;;;;;;21.20;54.21;100518.44;7260712;19;153681;-56
2022/11/28 02:06:09;;;;;;;;;;;;;;;21.18;53.91;100517.91;7261550;19;154238;-56
2022/11/28 02:08:36;;;;;;;;;;;;;;;21.15;54.08;100518.56;7257682;19;155586;-56
2022/11/28 02:11:16;;;;;;;;;;;;;;;21.15;54.40;100509.31;7257580;19;153146;-56
2022/11/28 02:13:56;;;;;;;;;;;;;;;21.13;54.04;100512.44;7255794;19;153403;-56
2022/11/28 02:16:33;;;;;;;;;;;;;;;21.12;54.20;100515.53;7260311;19;153812;-56
2022/11/28 02:19:11;;;;;;;;;;;;;;;21.10;54.19;100513.06;7257125;19;154111;-56
2022/11/28 02:21:39;;;;;;;;;;;;;;;21.07;54.15;100524.94;7266208;19;153174;-56
2022/11/28 02:24:19;;;;;;;;;;;;;;;21.06;54.01;100526.09;7259845;19;153382;-56
2022/11/28 02:26:56;;;;;;;;;;;;;;;21.04;54.43;100517.13;7258210;19;153122;-56
2022/11/28 02:29:32;;;;;;;;;;;;;;;21.02;54.23;100524.25;7255277;19;155310;-56
2022/11/28 02:32:07;;;;;;;;;;;;;;;21.02;54.36;100524.25;7260171;19;152749;-56
2022/11/28 02:34:37;;;;;;;;;;;;;;;20.99;54.08;100524.88;7258070;19;153551;-56
2022/11/28 02:37:13;;;;;;;;;;;;;;;20.96;54.44;100528.31;7258743;19;152996;-56
2022/11/28 02:39:52;;;;;;;;;;;;;;;20.92;54.51;100525.34;7259767;19;154435;-56
2022/11/28 02:42:28;;;;;;;;;;;;;;;20.92;54.15;100510.47;7260145;19;154422;-56
2022/11/28 02:44:59;;;;;;;;;;;;;;;20.89;54.60;100513.94;7258665;19;154952;-56
2022/11/28 02:47:31;;;;;;;;;;;;;;;20.88;54.62;100506.66;7260252;19;154754;-56
2022/11/28 02:49:57;;;;;;;;;;;;;;;20.85;54.35;100500.50;7258778;19;154802;-56
2022/11/28 02:52:28;;;;;;;;;;;;;;;20.84;54.50;100509.28;7258961;19;154528;-57
2022/11/28 02:54:55;;;;;;;;;;;;;;;20.84;54.22;100500.84;7257345;19;154705;-57
2022/11/28 02:57:22;;;;;;;;;;;;;;;20.80;54.54;100503.44;7257858;19;153443;-56
2022/11/28 02:59:49;;;;;;;;;;;;;;;20.79;54.75;100499.00;7253166;19;155032;-57
2022/11/28 03:02:21;;;;;;;;;;;;;;;20.76;54.36;100496.81;7258413;19;152859;-57
2022/11/28 03:04:53;;;;;;;;;;;;;;;20.75;54.74;100491.53;7255399;19;154533;-57
2022/11/28 03:07:28;;;;;;;;;;;;;;;20.73;54.61;100485.41;7265596;19;154293;-57
2022/11/28 03:10:05;;;;;;;;;;;;;;;20.72;54.51;100484.56;7254268;19;152974;-57
2022/11/28 03:12:32;;;;;;;;;;;;;;;20.72;54.86;100489.34;7258794;19;153971;-57
2022/11/28 03:15:04;;;;;;;;;;;;;;;20.70;54.45;100492.50;7254686;19;152053;-56
2022/11/28 03:17:40;;;;;;;;;;;;;;;20.70;54.57;100494.47;7254858;19;154356;-57
2022/11/28 03:20:16;;;;;;;;;;;;;;;20.68;54.65;100491.16;7255975;19;152837;-57
2022/11/28 03:22:53;;;;;;;;;;;;;;;20.64;54.86;100495.75;7256145;19;153891;-57
2022/11/28 03:25:20;;;;;;;;;;;;;;;20.62;54.92;100506.50;7258277;19;153515;-57
2022/11/28 03:27:52;;;;;;;;;;;;;;;20.59;55.20;100502.31;7265163;19;154072;-57
2022/11/28 03:30:23;;;;;;;;;;;;;;;20.57;55.34;100515.88;7256677;19;153705;-57
2022/11/28 03:32:52;;;;;;;;;;;;;;;20.57;55.19;100515.03;7258132;19;154462;-57
2022/11/28 03:35:21;;;;;;;;;;;;;;;20.55;55.07;100508.91;7256662;19;153672;-57
2022/11/28 03:37:51;;;;;;;;;;;;;;;20.53;55.15;100517.66;7254261;19;156002;-57
2022/11/28 03:40:22;;;;;;;;;;;;;;;20.54;55.53;100518.47;7254192;19;153917;-57
2022/11/28 03:43:01;;;;;;;;;;;;;;;20.51;55.35;100516.31;7255592;19;154746;-57
2022/11/28 03:45:31;;;;;;;;;;;;;;;20.48;55.22;100509.38;7252317;19;154094;-57
2022/11/28 03:48:01;;;;;;;;;;;;;;;20.48;55.37;100514.97;7257693;19;154279;-58
2022/11/28 03:50:32;;;;;;;;;;;;;;;20.47;55.58;100515.28;7263202;19;154163;-57
2022/11/28 03:53:04;;;;;;;;;;;;;;;20.43;55.53;100520.72;7257224;19;154533;-57
2022/11/28 03:55:36;;;;;;;;;;;;;;;20.42;55.24;100519.03;7253467;19;152969;-57
2022/11/28 03:58:04;;;;;;;;;;;;;;;20.43;55.30;100523.53;7253419;19;152845;-57
2022/11/28 04:00:34;;;;;;;;;;;;;;;20.41;55.74;100523.81;7251553;19;153151;-57
2022/11/28 04:03:08;;;;;;;;;;;;;;;20.41;55.83;100525.81;7259117;19;153840;-57
2022/11/28 04:05:45;;;;;;;;;;;;;;;20.41;55.38;100526.63;7255440;19;152712;-58
2022/11/28 04:08:21;;;;;;;;;;;;;;;20.39;55.67;100522.50;7256783;19;152771;-56
2022/11/28 04:10:51;;;;;;;;;;;;;;;20.36;55.52;100526.75;7253920;19;154121;-57
2022/11/28 04:13:28;;;;;;;;;;;;;;;20.34;55.69;100529.06;7258966;19;155726;-57
2022/11/28 04:15:58;;;;;;;;;;;;;;;20.33;55.55;100532.19;7254999;19;153357;-57
2022/11/28 04:18:25;;;;;;;;;;;;;;;20.33;55.47;100529.38;7255398;19;153360;-57
2022/11/28 04:21:01;;;;;;;;;;;;;;;20.31;55.64;100523.22;7252165;19;154154;-56
2022/11/28 04:23:28;;;;;;;;;;;;;;;20.29;55.76;100522.72;7257914;19;155325;-56
2022/11/28 04:26:02;;;;;;;;;;;;;;;20.27;55.84;100522.19;7254587;19;153605;-57
2022/11/28 04:28:31;;;;;;;;;;;;;;;20.26;55.65;100521.34;7253775;19;154383;-56
2022/11/28 04:30:59;;;;;;;;;;;;;;;20.26;55.51;100531.78;7256246;19;155119;-57
2022/11/28 04:33:27;;;;;;;;;;;;;;;20.24;55.36;100514.41;7254997;19;154752;-56
2022/11/28 04:35:55;;;;;;;;;;;;;;;20.23;55.71;100519.19;7264879;19;153713;-56
2022/11/28 04:38:23;;;;;;;;;;;;;;;20.20;55.73;100514.22;7255696;19;153576;-56
2022/11/28 04:40:52;;;;;;;;;;;;;;;20.20;55.75;100516.19;7253095;19;153468;-57
2022/11/28 04:43:23;;;;;;;;;;;;;;;20.18;55.31;100522.09;7254959;19;153816;-56
2022/11/28 04:45:52;;;;;;;;;;;;;;;20.17;55.84;100528.06;7250320;19;154039;-56
2022/11/28 04:48:19;;;;;;;;;;;;;;;20.16;55.62;100520.78;7253129;19;153123;-56
2022/11/28 04:51:00;;;;;;;;;;;;;;;20.16;55.61;100524.41;7253045;19;153472;-56
2022/11/28 04:53:27;;;;;;;;;;;;;;;20.15;55.34;100517.13;7253284;19;154219;-57
2022/11/28 04:56:00;;;;;;;;;;;;;;;20.14;55.72;100521.09;7254580;19;153514;-57
2022/11/28 04:58:33;;;;;;;;;;;;;;;20.12;55.86;100523.41;7260000;19;153669;-56
2022/11/28 05:01:00;;;;;;;;;;;;;;;20.10;55.84;100525.66;7250157;19;153871;-56
2022/11/28 05:03:28;;;;;;;;;;;;;;;20.10;55.57;100538.84;7254261;19;153426;-57
2022/11/28 05:05:55;;;;;;;;;;;;;;;20.09;55.61;100538.03;7253500;19;154147;-57
2022/11/28 05:08:22;;;;;;;;;;;;;;;20.07;55.56;100531.09;7254785;19;153871;-57
2022/11/28 05:10:49;;;;;;;;;;;;;;;20.07;55.56;100536.69;7251984;19;153679;-57
2022/11/28 05:13:16;;;;;;;;;;;;;;;20.05;55.65;100528.59;7253911;19;154251;-57
2022/11/28 05:15:43;;;;;;;;;;;;;;;20.05;55.45;100522.97;7252876;19;153352;-57
2022/11/28 05:18:10;;;;;;;;;;;;;;;20.05;55.46;100531.41;7253765;19;154262;-57
2022/11/28 05:20:37;;;;;;;;;;;;;;;20.04;55.80;100526.09;7259198;19;153742;-57
2022/11/28 05:23:04;;;;;;;;;;;;;;;20.03;55.87;100530.06;7254038;19;153289;-57
2022/11/28 05:25:30;;;;;;;;;;;;;;;19.99;56.05;100513.84;7250856;19;153569;-57
2022/11/28 05:27:57;;;;;;;;;;;;;;;19.99;55.91;100525.06;7255515;19;154367;-57
2022/11/28 05:30:24;;;;;;;;;;;;;;;20.00;55.63;100520.28;7253657;19;153849;-57
2022/11/28 05:32:51;;;;;;;;;;;;;;;19.98;55.91;100514.19;7253025;19;153327;-57
2022/11/28 05:35:17;;;;;;;;;;;;;;;19.95;55.79;100514.78;7255088;19;153713;-57
2022/11/28 05:37:44;;;;;;;;;;;;;;;19.95;55.73;100529.66;7252689;19;154826;-57
2022/11/28 05:40:11;;;;;;;;;;;;;;;19.99;55.81;100533.47;7259384;19;153991;-57
2022/11/28 05:42:38;;;;;;;;;;;;;;;20.05;55.81;100528.59;7253983;19;152030;-59
2022/11/28 05:45:05;;;;;;;;;;;;;;;20.13;55.77;100527.84;7249055;19;154689;-58
2022/11/28 05:47:32;;;;;;;;;;;;;;;20.25;55.51;100516.91;7252609;19;153841;-58
2022/11/28 05:49:59;;;;;;;;;;;;;;;20.35;55.67;100529.91;7251515;19;152073;-58
2022/11/28 05:52:28;;;;;;;;;;;;;;;20.40;55.73;100533.38;7252859;19;153585;-58
2022/11/28 05:54:55;;;;;;;;;;;;;;;20.45;55.21;100532.44;7250281;19;152593;-58
2022/11/28 05:57:22;;;;;;;;;;;;;;;20.50;55.19;100537.09;7252370;19;154515;-58
2022/11/28 05:59:48;;;;;;;;;;;;;;;20.56;55.66;100535.81;7248214;19;153858;-58
2022/11/28 06:02:15;;;;;;;;;;;;;;;20.62;55.30;100546.63;7260761;19;153774;-58
2022/11/28 06:04:42;;;;;;;;;;;;;;;20.67;55.28;100549.28;7252230;19;153015;-58
2022/11/28 06:07:09;;;;;;;;;;;;;;;20.73;55.55;100549.97;7254052;19;153800;-58
2022/11/28 06:09:35;;;;;;;;;;;;;;;20.78;55.67;100541.44;7251639;19;153293;-56
2022/11/28 06:12:02;;;;;;;;;;;;;;;20.83;55.74;100539.34;7251087;19;154519;-58
2022/11/28 06:14:29;;;;;;;;;;;;;;;20.89;55.58;100544.81;7250015;19;154090;-57
2022/11/28 06:16:55;;;;;;;;;;;;;;;20.94;55.34;100533.44;7252641;19;156101;-57
2022/11/28 06:19:22;;;;;;;;;;;;;;;20.99;55.46;100536.09;7251617;19;156482;-57
2022/11/28 06:21:49;;;;;;;;;;;;;;;21.02;54.99;100533.50;7251166;19;152150;-57
2022/11/28 06:24:16;;;;;;;;;;;;;;;21.06;54.84;100531.69;7257455;19;153992;-57
2022/11/28 06:26:43;;;;;;;;;;;;;;;21.11;54.66;100530.72;7251197;19;153543;-57
2022/11/28 06:29:10;;;;;;;;;;;;;;;21.15;54.69;100528.97;7249402;19;153761;-57
2022/11/28 06:31:36;;;;;;;;;;;;;;;21.18;54.45;100536.75;7253292;19;155918;-57
2022/11/28 06:34:03;;;;;;;;;;;;;;;21.22;54.41;100537.75;7252724;19;154172;-56
2022/11/28 06:36:30;;;;;;;;;;;;;;;21.25;54.05;100537.97;7255535;19;152784;-56
2022/11/28 06:38:57;;;;;;;;;;;;;;;21.28;54.18;100542.09;7259014;19;156207;-57
2022/11/28 06:41:23;;;;;;;;;;;;;;;21.31;53.99;100535.81;7257888;19;154327;-58
2022/11/28 06:43:50;;;;;;;;;;;;;;;21.34;53.87;100531.53;7256565;19;155734;-58
2022/11/28 06:46:18;;;;;;;;;;;;;;;21.37;53.66;100536.50;7266031;19;154255;-57
2022/11/28 06:48:46;;;;;;;;;;;;;;;21.40;53.45;100535.84;7258018;19;153455;-58
2022/11/28 06:51:13;;;;;;;;;;;;;;;21.42;53.40;100541.97;7255458;19;153295;-56
2022/11/28 06:53:40;;;;;;;;;;;;;;;21.44;53.21;100543.28;7261009;19;153649;-58
2022/11/28 06:56:08;;;;;;;;;;;;;;;21.45;52.79;100544.97;7258469;19;153819;-57
2022/11/28 06:58:36;;;;;;;;;;;;;;;21.47;52.97;100550.28;7254486;19;155264;-57
2022/11/28 07:01:06;;;;;;;;;;;;;;;21.48;52.97;100546.31;7257128;19;154592;-57
2022/11/28 07:03:33;;;;;;;;;;;;;;;21.49;52.97;100550.75;7258608;19;153841;-57
2022/11/28 07:06:01;;;;;;;;;;;;;;;21.50;52.85;100544.81;7257368;19;154068;-58
2022/11/28 07:08:29;;;;;;;;;;;;;;;21.51;52.86;100549.28;7264921;19;154549;-57
2022/11/28 07:10:57;;;;;;;;;;;;;;;21.53;52.38;100549.78;7252607;19;154475;-64
2022/11/28 07:13:24;;;;;;;;;;;;;;;21.53;53.08;100546.97;7258045;19;153498;-57
2022/11/28 07:15:50;;;;;;;;;;;;;;;21.53;52.33;100546.97;7254569;19;153632;-57
2022/11/28 07:18:17;;;;;;;;;;;;;;;21.53;52.57;100544.16;7258530;19;154087;-57
2022/11/28 07:20:44;;;;;;;;;;;;;;;21.53;52.33;100541.34;7255541;19;153579;-57
2022/11/28 07:23:11;;;;;;;;;;;;;;;21.55;52.81;100549.47;7257215;19;154319;-57
2022/11/28 07:25:38;;;;;;;;;;;;;;;21.55;52.19;100546.66;7254889;19;153556;-57
2022/11/28 07:28:05;;;;;;;;;;;;;;;21.55;52.04;100555.09;7263670;19;153847;-58
2022/11/28 07:30:32;;;;;;;;;;;;;;;21.52;51.95;100548.16;7254854;19;154038;-58
2022/11/28 07:32:58;;;;;;;;;;;;;;;21.54;52.07;100548.63;7259907;19;152819;-57
2022/11/28 07:35:25;;;;;;;;;;;;;;;21.55;51.83;100555.94;7258456;19;155007;-57
2022/11/28 07:37:52;;;;;;;;;;;;;;;21.55;52.00;100552.28;7256485;19;154207;-57
2022/11/28 07:40:21;;;;;;;;;;;;;;;21.55;51.71;100553.13;7257851;19;152275;-58
2022/11/28 07:42:48;;;;;;;;;;;;;;;21.59;51.81;100554.13;7254475;19;154150;-57
2022/11/28 07:45:15;;;;;;;;;;;;;;;21.66;50.68;100554.50;7254927;19;154246;-56
2022/11/28 07:47:41;;;;;;;;;;;;;;;21.70;51.11;100547.06;7256057;19;153048;-57
2022/11/28 07:50:08;;;;;;;;;;;;;;;21.57;48.00;100553.63;7263465;19;155539;-57
2022/11/28 07:52:35;;;;;;;;;;;;;;;21.50;48.40;100546.81;7255503;19;154499;-57
2022/11/28 07:55:02;;;;;;;;;;;;;;;21.53;49.10;100551.78;7258056;19;153973;-57
2022/11/28 07:57:29;;;;;;;;;;;;;;;21.56;48.88;100546.34;7252945;19;153417;-57
2022/11/28 07:59:56;;;;;;;;;;;;;;;21.59;49.10;100551.31;7254492;19;153724;-56
2022/11/28 08:02:23;;;;;;;;;;;;;;;21.63;49.42;100551.47;7256324;19;154443;-57
2022/11/28 08:04:50;;;;;;;;;;;;;;;21.66;49.70;100554.50;7257913;19;154030;-57
2022/11/28 08:07:20;;;;;;;;;;;;;;;21.68;49.76;100546.53;7259039;19;153480;-57
2022/11/28 08:09:47;;;;;;;;;;;;;;;21.73;49.52;100552.03;7256908;19;153970;-57
2022/11/28 08:12:14;;;;;;;;;;;;;;;21.77;49.52;100556.97;7261287;19;153614;-57
2022/11/28 08:14:41;;;;;;;;;;;;;;;21.80;49.78;100564.78;7255581;19;152750;-57
2022/11/28 08:17:08;;;;;;;;;;;;;;;21.84;49.36;100560.16;7257530;19;153559;-57
2022/11/28 08:19:37;;;;;;;;;;;;;;;21.86;49.70;100553.03;7243122;19;153472;-57
2022/11/28 08:22:04;;;;;;;;;;;;;;;21.91;49.56;100552.88;7219152;19;155308;-57
2022/11/28 08:24:31;;;;;;;;;;;;;;;21.94;49.16;100554.28;7249307;19;154624;-57
2022/11/28 08:26:58;;;;;;;;;;;;;;;21.96;49.07;100558.41;7254804;19;153925;-57
2022/11/28 08:29:25;;;;;;;;;;;;;;;21.99;48.95;100556.91;7246663;19;154018;-55
2022/11/28 08:31:51;;;;;;;;;;;;;;;22.04;48.67;100559.56;7251415;19;155170;-57
2022/11/28 08:34:18;;;;;;;;;;;;;;;22.07;48.57;100550.47;7259632;19;153388;-55
2022/11/28 08:36:46;;;;;;;;;;;;;;;22.09;48.87;100556.59;7251022;19;154359;-58
2022/11/28 08:39:13;;;;;;;;;;;;;;;22.11;48.56;100551.47;7249496;19;154070;-57
2022/11/28 08:41:56;;;;;;;;;;;;;;;22.15;47.97;100546.84;7249466;19;153662;-58
2022/11/28 08:44:23;;;;;;;;;;;;;;;22.15;47.77;100558.94;7249161;19;154753;-57
2022/11/28 08:46:50;;;;;;;;;;;;;;;22.14;47.26;100560.09;7253221;19;153739;-57
2022/11/28 08:49:17;;;;;;;;;;;;;;;22.14;47.48;100564.88;7257975;19;154308;-57
2022/11/28 08:51:44;;;;;;;;;;;;;;;22.12;47.24;100561.59;7253867;19;153991;-57
2022/11/28 08:54:11;;;;;;;;;;;;;;;22.10;46.87;100563.88;7256472;19;153433;-57
2022/11/28 08:56:38;;;;;;;;;;;;;;;22.08;47.01;100560.56;7263354;19;154386;-57
2022/11/28 08:59:06;;;;;;;;;;;;;;;22.07;46.96;100561.75;7253066;19;152538;-57
2022/11/28 09:01:33;;;;;;;;;;;;;;;22.05;47.12;100562.06;7254127;19;153255;-57
2022/11/28 09:04:00;;;;;;;;;;;;;;;22.05;46.86;100566.84;7254903;19;154023;-57
2022/11/28 09:06:27;;;;;;;;;;;;;;;22.03;47.04;100558.72;7258153;19;154114;-57
2022/11/28 09:08:54;;;;;;;;;;;;;;;22.01;46.83;100560.22;7257487;19;153898;-58
2022/11/28 09:11:21;;;;;;;;;;;;;;;22.00;47.03;100555.75;7252251;19;153927;-57
2022/11/28 09:13:49;;;;;;;;;;;;;;;22.01;46.72;100560.22;7252134;19;154313;-57
2022/11/28 09:16:16;;;;;;;;;;;;;;;21.97;46.77;100550.78;7254128;19;153658;-57
2022/11/28 09:18:43;;;;;;;;;;;;;;;21.97;46.47;100550.78;7260526;19;155418;-58
2022/11/28 09:21:11;;;;;;;;;;;;;;;21.95;46.60;100551.09;7254497;19;153926;-57
2022/11/28 09:23:39;;;;;;;;;;;;;;;21.93;46.52;100559.06;7250439;19;156345;-57
2022/11/28 09:26:10;;;;;;;;;;;;;;;21.92;46.50;100553.72;7254510;19;154050;-57
2022/11/28 09:28:37;;;;;;;;;;;;;;;21.88;46.69;100550.75;7252768;19;154253;-57
2022/11/28 09:31:05;;;;;;;;;;;;;;;21.88;46.65;100549.91;7252084;19;154648;-57
2022/11/28 09:33:32;;;;;;;;;;;;;;;21.86;46.68;100555.84;7255755;19;154142;-57
2022/11/28 09:36:03;;;;;;;;;;;;;;;21.84;46.48;100549.75;7253544;19;153630;-57
2022/11/28 09:38:30;;;;;;;;;;;;;;;21.83;46.80;100558.50;7260836;19;152800;-57
2022/11/28 09:40:57;;;;;;;;;;;;;;;21.83;46.42;100552.88;7254533;19;154484;-57
2022/11/28 09:43:29;;;;;;;;;;;;;;;21.80;46.29;100560.00;7254753;19;154261;-57
2022/11/28 09:45:57;;;;;;;;;;;;;;;21.78;46.45;100550.22;7254741;19;153328;-57
2022/11/28 09:48:24;;;;;;;;;;;;;;;21.77;46.74;100552.19;7257386;19;153611;-57
2022/11/28 09:50:54;;;;;;;;;;;;;;;21.75;46.46;100548.88;7253665;19;154051;-57
2022/11/28 09:53:31;;;;;;;;;;;;;;;21.71;46.80;100551.50;7252806;19;154747;-57
2022/11/28 09:55:59;;;;;;;;;;;;;;;21.70;46.36;100555.50;7256041;19;154362;-57
2022/11/28 09:58:35;;;;;;;;;;;;;;;21.69;46.67;100562.25;7250739;19;154325;-57
2022/11/28 10:01:05;;;;;;;;;;;;;;;21.66;46.62;100559.28;7260705;19;154749;-57
2022/11/28 10:03:38;;;;;;;;;;;;;;;21.64;46.51;100561.56;7251942;19;154088;-57
2022/11/28 10:06:14;;;;;;;;;;;;;;;21.64;46.93;100555.94;7253776;19;152287;-57
2022/11/28 10:08:50;;;;;;;;;;;;;;;21.63;46.67;100562.72;7255540;19;153654;-57
2022/11/28 10:11:24;;;;;;;;;;;;;;;21.62;46.42;100566.72;7253948;19;155177;-57
2022/11/28 10:13:57;;;;;;;;;;;;;;;21.60;46.81;100567.03;7258981;19;154090;-57
2022/11/28 10:16:49;;;;;;;;;;;;;;;21.61;46.70;100565.03;7260169;19;155140;-57
2022/11/28 10:19:18;;;;;;;;;;;;;;;21.59;46.66;100556.94;7259300;19;153437;-57
2022/11/28 10:22:08;;;;;;;;;;;;;;;21.56;46.73;100568.84;7260872;19;153729;-56
2022/11/28 10:24:40;;;;;;;;;;;;;;;21.53;46.77;100566.66;7269850;19;154385;-56
2022/11/28 10:27:11;;;;;;;;;;;;;;;21.52;46.81;100570.63;7257810;19;154131;-56
2022/11/28 10:29:39;;;;;;;;;;;;;;;21.41;47.31;100574.88;7259187;19;154112;-57
2022/11/28 10:32:12;;;;;;;;;;;;;;;21.39;47.36;100579.19;7260863;19;153906;-57
2022/11/28 10:34:39;;;;;;;;;;;;;;;21.41;46.86;100574.88;7188593;19;155870;-57
2022/11/28 10:37:09;;;;;;;;;;;;;;;21.43;46.96;100572.59;7255043;19;152797;-57
2022/11/28 10:39:39;;;;;;;;;;;;;;;21.43;46.47;100574.56;7253245;19;154607;-57
2022/11/28 10:42:16;;;;;;;;;;;;;;;21.39;46.66;100573.56;7255395;19;152227;-57
2022/11/28 10:44:44;;;;;;;;;;;;;;;21.31;47.16;100572.34;7253948;19;153778;-57
2022/11/28 10:47:18;;;;;;;;;;;;;;;21.24;47.18;100575.63;7262063;19;153900;-57
2022/11/28 10:49:52;;;;;;;;;;;;;;;21.19;47.12;100572.13;7255274;19;153558;-57
2022/11/28 10:52:25;;;;;;;;;;;;;;;21.13;47.36;100576.19;7252117;19;153337;-57
2022/11/28 10:54:52;;;;;;;;;;;;;;;21.04;48.02;100572.47;7255779;19;153174;-57
2022/11/28 10:57:29;;;;;;;;;;;;;;;20.99;47.91;100575.41;7256325;19;153022;-57
2022/11/28 11:00:03;;;;;;;;;;;;;;;20.96;48.08;100564.84;7251081;19;154970;-57
2022/11/28 11:02:36;;;;;;;;;;;;;;;20.93;48.13;100577.56;7254794;19;154683;-57
2022/11/28 11:05:04;;;;;;;;;;;;;;;20.91;48.10;100573.38;7251591;19;154296;-57
2022/11/28 11:07:33;;;;;;;;;;;;;;;20.85;48.28;100570.72;7253634;19;153281;-57
2022/11/28 11:10:11;;;;;;;;;;;;;;;20.83;48.08;100566.56;7258559;19;154551;-56
2022/11/28 11:12:39;;;;;;;;;;;;;;;20.79;48.23;100563.59;7256209;19;153884;-56
2022/11/28 11:15:15;;;;;;;;;;;;;;;20.77;48.41;100565.03;7257062;19;152942;-57
2022/11/28 11:17:42;;;;;;;;;;;;;;;20.75;48.42;100570.16;7258897;19;153751;-56
2022/11/28 11:20:18;;;;;;;;;;;;;;;20.72;48.58;100566.00;7257141;19;153971;-57
2022/11/28 11:22:53;;;;;;;;;;;;;;;20.71;48.26;100564.34;7254375;19;153122;-57
2022/11/28 11:25:20;;;;;;;;;;;;;;;20.71;48.47;100571.94;7257871;19;153355;-57
2022/11/28 11:27:47;;;;;;;;;;;;;;;20.69;48.31;100563.84;7255652;19;154710;-56
2022/11/28 11:30:15;;;;;;;;;;;;;;;20.69;48.76;100575.06;7254901;19;153641;-57
2022/11/28 11:32:45;;;;;;;;;;;;;;;20.69;48.74;100577.03;7263336;19;154294;-56
2022/11/28 11:35:20;;;;;;;;;;;;;;;20.69;48.19;100582.66;7254560;19;154330;-56
2022/11/28 11:37:47;;;;;;;;;;;;;;;20.66;48.22;100577.69;7253541;19;154151;-56
2022/11/28 11:40:20;;;;;;;;;;;;;;;20.64;48.15;100572.38;7254926;19;154327;-56
2022/11/28 11:42:57;;;;;;;;;;;;;;;20.64;48.52;100577.16;7255504;19;152916;-56
2022/11/28 11:45:26;;;;;;;;;;;;;;;20.62;48.80;100574.69;7255045;19;154123;-56
2022/11/28 11:47:53;;;;;;;;;;;;;;;20.59;48.49;100568.88;7251886;19;154015;-56
2022/11/28 11:50:21;;;;;;;;;;;;;;;20.58;48.84;100567.22;7257930;19;154424;-56
2022/11/28 11:52:57;;;;;;;;;;;;;;;20.57;48.49;100566.41;7259343;19;153343;-56
2022/11/28 11:55:27;;;;;;;;;;;;;;;20.56;48.66;100564.72;7247418;19;153733;-56
2022/11/28 11:57:56;;;;;;;;;;;;;;;20.55;48.63;100560.25;7255068;19;153402;-57
2022/11/28 12:00:38;;;;;;;;;;;;;;;20.53;48.63;100556.94;7254442;19;154174;-56
2022/11/28 12:03:13;;;;;;;;;;;;;;;20.53;48.66;100559.75;7256170;19;153026;-57
2022/11/28 12:05:50;;;;;;;;;;;;;;;20.53;48.73;100561.72;7255792;19;154588;-57
2022/11/28 12:08:44;;;;;;;;;;;;;;;20.53;48.53;100575.78;7257570;19;156263;-57
2022/11/28 12:11:14;;;;;;;;;;;;;;;20.50;48.25;100574.41;7254714;19;153154;-57
2022/11/28 12:13:41;;;;;;;;;;;;;;;20.52;48.45;100577.75;7252943;19;153862;-56
2022/11/28 12:16:17;;;;;;;;;;;;;;;20.49;48.15;100575.53;7258508;19;153510;-57
2022/11/28 12:18:45;;;;;;;;;;;;;;;20.46;48.72;100576.19;7249935;19;153695;-56
2022/11/28 12:21:13;;;;;;;;;;;;;;;20.42;48.61;100577.97;7247734;19;154556;-57
2022/11/28 12:23:41;;;;;;;;;;;;;;;20.40;48.66;100583.06;7247560;19;154553;-56
2022/11/28 12:26:17;;;;;;;;;;;;;;;20.35;48.69;100584.00;7250218;19;153777;-56
2022/11/28 12:28:53;;;;;;;;;;;;;;;20.33;48.41;100588.28;7245388;19;154591;-56
2022/11/28 12:31:29;;;;;;;;;;;;;;;20.31;48.58;100590.56;7255803;19;154029;-56
2022/11/28 12:34:08;;;;;;;;;;;;;;;20.26;48.80;100588.69;7264490;19;154200;-57
2022/11/28 12:36:38;;;;;;;;;;;;;;;20.24;48.73;100591.00;7262499;19;154806;-56
2022/11/28 12:39:14;;;;;;;;;;;;;;;20.22;48.99;100589.63;7272216;19;153119;-56